createdAt,value
2023-02-25T00:02:15.943Z,95823.50
2023-02-25T00:07:10.801Z,95816.78
2023-02-25T00:12:04.730Z,95826.94
2023-02-25T00:16:58.214Z,95836.78
2023-02-25T00:21:51.747Z,95828.16
2023-02-25T00:26:46.577Z,95818.22
2023-02-25T00:31:40.031Z,95830.63
2023-02-25T00:36:33.836Z,95845.97
2023-02-25T00:41:30.323Z,95828.50
2023-02-25T00:46:26.179Z,95820.44
2023-02-25T00:51:23.405Z,95830.38
2023-02-25T00:56:20.381Z,95833.34
2023-02-25T01:01:21.692Z,95840.44
2023-02-25T01:06:17.007Z,95864.47
2023-02-25T01:11:16.589Z,95864.31
2023-02-25T01:16:19.853Z,95870.81
2023-02-25T01:21:20.109Z,95882.63
2023-02-25T01:26:14.426Z,95881.91
2023-02-25T01:31:08.594Z,95880.09
2023-02-25T01:36:03.385Z,95874.75
2023-02-25T01:41:01.851Z,95896.19
2023-02-25T01:45:56.314Z,95894.78
2023-02-25T01:50:53.532Z,95879.66
2023-02-25T01:55:47.178Z,95876.34
2023-02-25T02:00:42.998Z,95859.34
2023-02-25T02:05:51.694Z,95862.06
2023-02-25T02:10:44.995Z,95851.28
2023-02-25T02:15:48.834Z,95858.84
2023-02-25T02:21:06.659Z,95862.16
2023-02-25T02:26:33.865Z,95862.72
2023-02-25T02:31:49.438Z,95855.63
2023-02-25T02:36:56.596Z,95867.84
2023-02-25T02:42:06.166Z,95866.03
2023-02-25T02:47:07.849Z,95877.44
2023-02-25T02:52:07.243Z,95888.34
2023-02-25T02:57:03.585Z,95889.19
2023-02-25T03:02:08.760Z,95889.22
2023-02-25T03:07:09.621Z,95902.44
2023-02-25T03:12:03.328Z,95902.06
2023-02-25T03:17:04.716Z,95907.66
2023-02-25T03:22:08.936Z,95893.81
2023-02-25T03:27:23.489Z,95906.28
2023-02-25T03:32:20.938Z,95906.44
2023-02-25T03:37:20.176Z,95905.88
2023-02-25T03:42:21.758Z,95913.47
2023-02-25T03:47:18.308Z,95917.50
2023-02-25T03:52:18.425Z,95913.34
2023-02-25T03:57:11.865Z,95916.19
2023-02-25T04:02:06.072Z,95918.56
2023-02-25T04:07:00.754Z,95936.75
2023-02-25T04:11:57.098Z,95936.00
2023-02-25T04:16:50.511Z,95933.16
2023-02-25T04:21:46.395Z,95930.56
2023-02-25T04:26:41.068Z,95932.06
2023-02-25T04:31:34.533Z,95934.97
2023-02-25T04:36:31.121Z,95935.44
2023-02-25T04:41:25.962Z,95936.19
2023-02-25T04:46:21.007Z,95929.41
2023-02-25T04:51:15.858Z,95942.88
2023-02-25T04:56:11.209Z,95932.72
2023-02-25T05:01:09.423Z,95939.25
2023-02-25T05:06:05.359Z,95931.25
2023-02-25T05:10:58.707Z,95932.97
2023-02-25T05:15:52.098Z,95946.44
2023-02-25T05:20:48.196Z,95955.59
2023-02-25T05:25:42.924Z,95949.97
2023-02-25T05:30:37.773Z,95950.09
2023-02-25T05:35:32.656Z,95940.63
2023-02-25T05:40:25.998Z,95943.75
2023-02-25T05:45:20.807Z,95944.63
2023-02-25T05:50:14.172Z,95943.19
2023-02-25T05:55:10.157Z,95953.06
2023-02-25T06:00:04.326Z,95953.56
2023-02-25T06:04:59.054Z,95952.13
2023-02-25T06:09:52.447Z,95961.91
2023-02-25T06:14:45.807Z,95957.13
2023-02-25T06:19:39.123Z,95954.78
2023-02-25T06:24:33.870Z,95953.13
2023-02-25T06:29:27.215Z,95957.75
2023-02-25T06:34:20.596Z,95969.47
2023-02-25T06:39:14.027Z,95966.59
2023-02-25T06:44:08.849Z,95984.38
2023-02-25T06:49:02.229Z,95978.63
2023-02-25T06:53:55.597Z,95982.47
2023-02-25T06:58:49.283Z,95994.28
2023-02-25T07:03:44.903Z,95987.19
2023-02-25T07:08:38.310Z,95981.59
2023-02-25T07:13:31.750Z,95985.97
2023-02-25T07:18:25.101Z,95991.56
2023-02-25T07:23:19.931Z,96001.44
2023-02-25T07:28:13.311Z,96014.44
2023-02-25T07:33:06.688Z,96022.75
2023-02-25T07:38:00.168Z,96024.53
2023-02-25T07:42:54.994Z,96003.41
2023-02-25T07:47:48.309Z,96006.72
2023-02-25T07:52:42.345Z,95996.13
2023-02-25T07:57:36.357Z,96007.47
2023-02-25T08:02:31.103Z,95998.72
2023-02-25T08:07:26.562Z,95987.75
2023-02-25T08:12:20.043Z,95989.59
2023-02-25T08:17:13.923Z,95997.97
2023-02-25T08:22:08.910Z,96020.66
2023-02-25T08:27:02.407Z,96026.06
2023-02-25T08:31:56.012Z,96048.00
2023-02-25T08:41:58.127Z,96072.50
2023-02-25T08:46:51.491Z,96080.81
2023-02-25T08:51:44.853Z,96062.91
2023-02-25T08:56:44.246Z,96078.53
2023-02-25T09:01:49.333Z,96079.97
2023-02-25T09:58:10.071Z,96077.69
2023-02-25T10:03:19.593Z,96084.53
2023-02-25T10:08:22.896Z,96076.53
2023-02-25T10:13:35.117Z,96083.81
2023-02-25T10:18:55.729Z,96084.84
2023-02-25T10:24:17.591Z,96078.53
2023-02-25T10:29:29.667Z,96084.03
2023-02-25T10:34:27.044Z,96083.28
2023-02-25T10:39:20.457Z,96083.91
2023-02-25T10:44:15.240Z,96079.97
2023-02-25T10:49:20.944Z,96074.78
2023-02-25T10:54:15.670Z,96079.53
2023-02-25T10:59:31.282Z,96070.00
2023-02-25T11:04:33.121Z,96068.41
2023-02-25T11:09:38.275Z,96063.97
2023-02-25T11:14:35.845Z,96064.38
2023-02-25T11:19:34.058Z,96057.00
2023-02-25T11:24:33.740Z,96055.28
2023-02-25T11:29:38.602Z,96044.19
2023-02-25T11:34:33.716Z,96050.13
2023-02-25T11:39:30.949Z,96044.00
2023-02-25T11:44:41.266Z,96036.47
2023-02-25T11:50:16.055Z,96020.03
2023-02-25T11:55:26.185Z,96021.47
2023-02-25T12:00:31.830Z,96009.50
2023-02-25T12:06:02.595Z,96004.84
2023-02-25T12:11:46.343Z,96002.84
2023-02-25T12:18:08.348Z,96000.63
2023-02-25T12:23:52.395Z,96004.19
2023-02-25T12:34:47.669Z,96010.50
2023-02-25T12:40:25.748Z,96021.88
2023-02-25T12:46:00.035Z,96040.69
2023-02-25T12:51:21.733Z,96032.47
2023-02-25T12:56:54.716Z,96028.00
2023-02-25T13:02:05.750Z,96021.88
2023-02-25T13:07:41.319Z,96029.03
2023-02-25T13:13:02.776Z,96018.34
2023-02-25T13:18:20.131Z,96024.88
2023-02-25T13:24:01.227Z,96030.16
2023-02-25T13:29:19.994Z,96023.19
2023-02-25T13:34:30.411Z,96034.53
2023-02-25T13:40:20.710Z,96031.50
2023-02-25T13:45:44.339Z,96035.84
2023-02-25T13:57:33.364Z,96034.72
2023-02-25T14:03:18.751Z,96035.88
2023-02-25T14:08:46.446Z,96040.88
2023-02-25T14:14:04.580Z,96028.06
2023-02-25T14:19:27.389Z,96039.41
2023-02-25T14:24:33.504Z,96046.69
2023-02-25T14:29:39.986Z,96038.44
2023-02-25T14:34:50.625Z,96036.53
2023-02-25T14:40:05.341Z,96035.94
2023-02-25T14:45:07.037Z,96024.91
2023-02-25T14:50:14.607Z,96039.75
2023-02-25T14:55:36.382Z,96028.19
2023-02-25T15:00:58.540Z,96036.00
2023-02-25T15:06:24.335Z,96028.06
2023-02-25T15:11:52.031Z,96039.72
2023-02-25T15:17:37.069Z,96024.16
2023-02-25T15:22:33.018Z,96038.41
2023-02-25T15:27:49.368Z,96023.50
2023-02-25T15:33:24.796Z,96033.19
2023-02-25T15:38:38.855Z,96062.94
2023-02-25T15:43:46.011Z,96050.44
2023-02-25T15:48:42.153Z,96032.34
2023-02-25T15:53:48.769Z,96050.88
2023-02-25T15:58:55.740Z,96054.81
2023-02-25T16:03:49.538Z,96069.38
2023-02-25T16:08:53.886Z,96078.31
2023-02-25T16:13:48.560Z,96082.88
2023-02-25T16:18:47.828Z,96084.13
2023-02-25T16:23:44.576Z,96079.88
2023-02-25T16:28:49.787Z,96100.13
2023-02-25T16:33:53.949Z,96099.31
2023-02-25T16:38:59.008Z,96094.31
2023-02-25T16:43:54.166Z,96103.56
2023-02-25T16:48:52.323Z,96100.53
2023-02-25T16:53:52.613Z,96105.75
2023-02-25T16:59:02.502Z,96111.75
2023-02-25T17:04:09.906Z,96121.13
2023-02-25T17:09:04.904Z,96119.88
2023-02-25T17:14:05.544Z,96123.19
2023-02-25T17:19:04.006Z,96124.44
2023-02-25T17:24:00.414Z,96143.22
2023-02-25T17:29:00.220Z,96151.31
2023-02-25T17:33:58.278Z,96158.50
2023-02-25T17:38:57.652Z,96164.72
2023-02-25T17:43:51.624Z,96176.16
2023-02-25T17:48:54.065Z,96177.09
2023-02-25T17:53:51.946Z,96180.09
2023-02-25T17:58:46.378Z,96179.22
2023-02-25T18:03:48.444Z,96174.16
2023-02-25T18:08:53.662Z,96185.75
2023-02-25T18:13:47.093Z,96192.81
2023-02-25T18:18:41.828Z,96183.16
2023-02-25T18:23:36.873Z,96186.59
2023-02-25T18:28:30.520Z,96192.91
2023-02-25T18:33:24.011Z,96195.91
2023-02-25T18:38:21.279Z,96183.97
2023-02-25T18:43:18.707Z,96177.31
2023-02-25T18:48:12.570Z,96170.03
2023-02-25T18:53:06.031Z,96173.44
2023-02-25T18:57:59.961Z,96176.34
2023-02-25T19:02:58.006Z,96178.63
2023-02-25T19:07:52.668Z,96181.09
2023-02-25T19:12:49.560Z,96168.84
2023-02-25T19:17:43.233Z,96160.22
2023-02-25T19:22:43.769Z,96151.06
2023-02-25T19:27:37.187Z,96159.84
2023-02-25T19:32:30.685Z,96156.47
2023-02-25T19:37:24.132Z,96159.16
2023-02-25T19:42:19.125Z,96168.50
2023-02-25T19:47:12.586Z,96156.75
2023-02-25T19:52:06.315Z,96165.56
2023-02-25T19:56:59.707Z,96166.03
2023-02-25T20:01:54.491Z,96164.91
2023-02-25T20:06:47.816Z,96169.28
2023-02-25T20:11:41.573Z,96175.13
2023-02-25T20:16:35.810Z,96179.16
2023-02-25T20:21:31.540Z,96181.59
2023-02-25T20:26:25.858Z,96175.66
2023-02-25T20:31:20.546Z,96176.31
2023-02-25T20:36:22.889Z,96174.38
2023-02-25T20:41:18.169Z,96185.84
2023-02-25T20:46:26.508Z,96186.97
2023-02-25T20:51:20.799Z,96199.44
2023-02-25T20:56:21.377Z,96202.69
2023-02-25T21:01:14.865Z,96200.28
2023-02-25T21:06:09.470Z,96206.84
2023-02-25T21:11:03.676Z,96208.44
2023-02-25T21:16:01.947Z,96207.63
2023-02-25T21:20:59.590Z,96225.84
2023-02-25T21:25:53.026Z,96216.59
2023-02-25T21:30:49.150Z,96229.72
2023-02-25T21:35:45.674Z,96226.84
2023-02-25T21:40:42.699Z,96250.91
2023-02-25T21:45:38.918Z,96258.84
2023-02-25T21:50:32.970Z,96268.03
2023-02-25T21:55:34.293Z,96271.19
2023-02-25T22:00:28.867Z,96272.78
2023-02-25T22:05:22.727Z,96284.63
2023-02-25T22:10:17.020Z,96284.41
2023-02-25T22:15:23.397Z,96265.75
2023-02-25T22:20:23.846Z,96270.19
2023-02-25T22:25:42.040Z,96263.03
2023-02-25T22:31:27.878Z,96263.31
2023-02-25T22:36:46.197Z,96270.19
2023-02-25T22:41:46.899Z,96286.47
2023-02-25T22:52:24.063Z,96303.75
2023-02-25T22:57:23.675Z,96306.44
2023-02-25T23:02:46.330Z,96309.63
2023-02-25T23:07:58.010Z,96306.28
2023-02-25T23:13:11.289Z,96308.53
2023-02-25T23:23:38.476Z,96316.63
2023-02-25T23:28:41.380Z,96323.88
2023-02-25T23:33:36.348Z,96319.88
2023-02-25T23:38:53.751Z,96322.06
2023-02-25T23:44:19.488Z,96323.91
2023-02-25T23:49:40.123Z,96318.13
2023-02-25T23:54:40.887Z,96330.66
2023-02-25T23:59:50.959Z,96323.22
